sensor_id;sensor_type;location;lat;lon;timestamp;P1;durP1;ratioP1;P2;durP2;ratioP2
57025;SDS011;43961;52.940;6.834;2024-02-26T00:01:40;81.35;;;50.65;;
57025;SDS011;43961;52.940;6.834;2024-02-26T00:04:08;90.63;;;50.95;;
57025;SDS011;43961;52.940;6.834;2024-02-26T00:06:34;82.47;;;50.03;;
57025;SDS011;43961;52.940;6.834;2024-02-26T00:09:00;92.03;;;54.35;;
57025;SDS011;43961;52.940;6.834;2024-02-26T00:11:27;83.80;;;50.28;;
57025;SDS011;43961;52.940;6.834;2024-02-26T00:13:53;98.88;;;56.17;;
57025;SDS011;43961;52.940;6.834;2024-02-26T00:16:18;89.10;;;51.63;;
57025;SDS011;43961;52.940;6.834;2024-02-26T00:18:44;97.68;;;54.75;;
57025;SDS011;43961;52.940;6.834;2024-02-26T00:21:10;94.35;;;54.13;;
57025;SDS011;43961;52.940;6.834;2024-02-26T00:23:35;90.15;;;53.97;;
57025;SDS011;43961;52.940;6.834;2024-02-26T00:26:01;95.45;;;52.88;;
57025;SDS011;43961;52.940;6.834;2024-02-26T00:28:27;87.78;;;52.22;;
57025;SDS011;43961;52.940;6.834;2024-02-26T00:30:54;94.47;;;53.95;;
57025;SDS011;43961;52.940;6.834;2024-02-26T00:33:21;97.30;;;54.42;;
57025;SDS011;43961;52.940;6.834;2024-02-26T00:35:47;94.53;;;53.10;;
57025;SDS011;43961;52.940;6.834;2024-02-26T00:38:13;91.30;;;52.42;;
57025;SDS011;43961;52.940;6.834;2024-02-26T00:40:39;94.68;;;54.90;;
57025;SDS011;43961;52.940;6.834;2024-02-26T00:43:06;95.18;;;54.17;;
57025;SDS011;43961;52.940;6.834;2024-02-26T00:45:31;98.35;;;55.00;;
57025;SDS011;43961;52.940;6.834;2024-02-26T00:47:57;95.55;;;51.72;;
57025;SDS011;43961;52.940;6.834;2024-02-26T00:50:23;92.70;;;54.85;;
57025;SDS011;43961;52.940;6.834;2024-02-26T00:52:50;97.72;;;55.67;;
57025;SDS011;43961;52.940;6.834;2024-02-26T00:55:16;87.38;;;51.53;;
57025;SDS011;43961;52.940;6.834;2024-02-26T00:57:41;94.93;;;53.47;;
57025;SDS011;43961;52.940;6.834;2024-02-26T01:00:07;89.85;;;50.70;;
57025;SDS011;43961;52.940;6.834;2024-02-26T01:02:36;97.10;;;54.13;;
57025;SDS011;43961;52.940;6.834;2024-02-26T01:05:02;101.80;;;54.22;;
57025;SDS011;43961;52.940;6.834;2024-02-26T01:07:28;100.10;;;55.10;;
57025;SDS011;43961;52.940;6.834;2024-02-26T01:09:53;95.57;;;54.08;;
57025;SDS011;43961;52.940;6.834;2024-02-26T01:12:19;93.63;;;50.53;;
57025;SDS011;43961;52.940;6.834;2024-02-26T01:14:44;97.25;;;53.75;;
57025;SDS011;43961;52.940;6.834;2024-02-26T01:17:10;99.80;;;52.92;;
57025;SDS011;43961;52.940;6.834;2024-02-26T01:19:35;92.80;;;51.80;;
57025;SDS011;43961;52.940;6.834;2024-02-26T01:22:01;103.85;;;55.03;;
57025;SDS011;43961;52.940;6.834;2024-02-26T01:24:27;100.88;;;51.70;;
57025;SDS011;43961;52.940;6.834;2024-02-26T01:26:54;107.95;;;54.60;;
57025;SDS011;43961;52.940;6.834;2024-02-26T01:29:19;117.32;;;58.50;;
57025;SDS011;43961;52.940;6.834;2024-02-26T01:31:45;115.53;;;59.70;;
57025;SDS011;43961;52.940;6.834;2024-02-26T01:34:11;128.50;;;60.35;;
57025;SDS011;43961;52.940;6.834;2024-02-26T01:36:36;123.90;;;58.38;;
57025;SDS011;43961;52.940;6.834;2024-02-26T01:39:02;116.20;;;58.45;;
57025;SDS011;43961;52.940;6.834;2024-02-26T01:41:28;126.10;;;62.70;;
57025;SDS011;43961;52.940;6.834;2024-02-26T01:43:54;121.90;;;61.10;;
57025;SDS011;43961;52.940;6.834;2024-02-26T01:46:20;129.45;;;64.55;;
57025;SDS011;43961;52.940;6.834;2024-02-26T01:48:46;132.40;;;63.08;;
57025;SDS011;43961;52.940;6.834;2024-02-26T01:51:14;144.48;;;67.20;;
57025;SDS011;43961;52.940;6.834;2024-02-26T01:53:42;154.07;;;68.88;;
57025;SDS011;43961;52.940;6.834;2024-02-26T01:56:08;149.82;;;68.45;;
57025;SDS011;43961;52.940;6.834;2024-02-26T01:58:34;138.15;;;67.63;;
57025;SDS011;43961;52.940;6.834;2024-02-26T02:01:01;147.30;;;68.53;;
57025;SDS011;43961;52.940;6.834;2024-02-26T02:03:27;148.68;;;68.28;;
57025;SDS011;43961;52.940;6.834;2024-02-26T02:05:54;136.20;;;69.30;;
57025;SDS011;43961;52.940;6.834;2024-02-26T02:08:20;153.38;;;71.25;;
57025;SDS011;43961;52.940;6.834;2024-02-26T02:10:48;155.03;;;66.17;;
57025;SDS011;43961;52.940;6.834;2024-02-26T02:13:15;157.70;;;70.85;;
57025;SDS011;43961;52.940;6.834;2024-02-26T02:15:40;159.10;;;70.93;;
57025;SDS011;43961;52.940;6.834;2024-02-26T02:18:06;167.30;;;72.65;;
57025;SDS011;43961;52.940;6.834;2024-02-26T02:20:32;162.40;;;72.60;;
57025;SDS011;43961;52.940;6.834;2024-02-26T02:22:59;162.73;;;75.78;;
57025;SDS011;43961;52.940;6.834;2024-02-26T02:25:25;177.32;;;78.90;;
57025;SDS011;43961;52.940;6.834;2024-02-26T02:27:50;168.98;;;77.72;;
57025;SDS011;43961;52.940;6.834;2024-02-26T02:30:18;174.20;;;75.85;;
57025;SDS011;43961;52.940;6.834;2024-02-26T02:32:45;166.18;;;76.53;;
57025;SDS011;43961;52.940;6.834;2024-02-26T02:35:11;197.05;;;84.30;;
57025;SDS011;43961;52.940;6.834;2024-02-26T02:37:37;171.07;;;75.90;;
57025;SDS011;43961;52.940;6.834;2024-02-26T02:40:02;172.43;;;79.35;;
57025;SDS011;43961;52.940;6.834;2024-02-26T02:42:28;186.40;;;83.20;;
57025;SDS011;43961;52.940;6.834;2024-02-26T02:44:55;175.45;;;79.13;;
57025;SDS011;43961;52.940;6.834;2024-02-26T02:47:20;186.95;;;82.15;;
57025;SDS011;43961;52.940;6.834;2024-02-26T02:49:46;197.02;;;84.55;;
57025;SDS011;43961;52.940;6.834;2024-02-26T02:52:12;209.63;;;84.50;;
57025;SDS011;43961;52.940;6.834;2024-02-26T02:54:37;213.10;;;84.72;;
57025;SDS011;43961;52.940;6.834;2024-02-26T02:57:05;209.63;;;79.05;;
57025;SDS011;43961;52.940;6.834;2024-02-26T02:59:31;192.75;;;77.47;;
57025;SDS011;43961;52.940;6.834;2024-02-26T03:01:56;196.52;;;77.93;;
57025;SDS011;43961;52.940;6.834;2024-02-26T03:04:22;188.07;;;77.28;;
57025;SDS011;43961;52.940;6.834;2024-02-26T03:06:48;187.85;;;74.25;;
57025;SDS011;43961;52.940;6.834;2024-02-26T03:09:13;178.65;;;74.10;;
57025;SDS011;43961;52.940;6.834;2024-02-26T03:11:39;171.20;;;72.43;;
57025;SDS011;43961;52.940;6.834;2024-02-26T03:14:05;161.95;;;73.28;;
57025;SDS011;43961;52.940;6.834;2024-02-26T03:16:31;176.02;;;75.30;;
57025;SDS011;43961;52.940;6.834;2024-02-26T03:18:57;182.13;;;79.35;;
57025;SDS011;43961;52.940;6.834;2024-02-26T03:21:24;165.48;;;77.22;;
57025;SDS011;43961;52.940;6.834;2024-02-26T03:23:50;167.05;;;77.05;;
57025;SDS011;43961;52.940;6.834;2024-02-26T03:26:16;178.35;;;80.10;;
57025;SDS011;43961;52.940;6.834;2024-02-26T03:28:41;179.85;;;80.38;;
57025;SDS011;43961;52.940;6.834;2024-02-26T03:31:07;172.20;;;79.43;;
57025;SDS011;43961;52.940;6.834;2024-02-26T03:33:33;170.45;;;79.32;;
57025;SDS011;43961;52.940;6.834;2024-02-26T03:35:59;176.50;;;82.45;;
57025;SDS011;43961;52.940;6.834;2024-02-26T03:38:25;164.85;;;81.72;;
57025;SDS011;43961;52.940;6.834;2024-02-26T03:40:51;182.05;;;82.55;;
57025;SDS011;43961;52.940;6.834;2024-02-26T03:43:16;184.90;;;84.78;;
57025;SDS011;43961;52.940;6.834;2024-02-26T03:45:42;197.93;;;87.95;;
57025;SDS011;43961;52.940;6.834;2024-02-26T03:48:08;184.60;;;85.32;;
57025;SDS011;43961;52.940;6.834;2024-02-26T03:50:33;192.73;;;84.97;;
57025;SDS011;43961;52.940;6.834;2024-02-26T03:52:59;198.70;;;86.38;;
57025;SDS011;43961;52.940;6.834;2024-02-26T03:55:25;194.27;;;85.18;;
57025;SDS011;43961;52.940;6.834;2024-02-26T03:57:51;183.38;;;81.45;;
57025;SDS011;43961;52.940;6.834;2024-02-26T04:00:17;188.85;;;83.63;;
57025;SDS011;43961;52.940;6.834;2024-02-26T04:02:43;181.57;;;80.97;;
57025;SDS011;43961;52.940;6.834;2024-02-26T04:05:09;169.48;;;83.53;;
57025;SDS011;43961;52.940;6.834;2024-02-26T04:07:35;175.85;;;80.45;;
57025;SDS011;43961;52.940;6.834;2024-02-26T04:10:01;166.57;;;76.35;;
57025;SDS011;43961;52.940;6.834;2024-02-26T04:12:30;148.63;;;73.38;;
57025;SDS011;43961;52.940;6.834;2024-02-26T04:14:56;138.60;;;66.35;;
57025;SDS011;43961;52.940;6.834;2024-02-26T04:17:22;140.30;;;71.28;;
57025;SDS011;43961;52.940;6.834;2024-02-26T04:19:47;133.75;;;67.40;;
57025;SDS011;43961;52.940;6.834;2024-02-26T04:22:13;130.75;;;63.80;;
57025;SDS011;43961;52.940;6.834;2024-02-26T04:24:39;117.03;;;62.50;;
57025;SDS011;43961;52.940;6.834;2024-02-26T04:27:04;113.07;;;60.75;;
57025;SDS011;43961;52.940;6.834;2024-02-26T04:29:30;102.05;;;56.85;;
57025;SDS011;43961;52.940;6.834;2024-02-26T04:31:55;96.65;;;54.28;;
57025;SDS011;43961;52.940;6.834;2024-02-26T04:34:21;91.75;;;50.65;;
57025;SDS011;43961;52.940;6.834;2024-02-26T04:36:46;90.18;;;50.80;;
57025;SDS011;43961;52.940;6.834;2024-02-26T04:39:13;87.60;;;51.10;;
57025;SDS011;43961;52.940;6.834;2024-02-26T04:41:38;82.40;;;47.53;;
57025;SDS011;43961;52.940;6.834;2024-02-26T04:44:04;90.40;;;47.75;;
57025;SDS011;43961;52.940;6.834;2024-02-26T04:46:30;74.13;;;45.28;;
57025;SDS011;43961;52.940;6.834;2024-02-26T04:48:56;77.82;;;44.63;;
57025;SDS011;43961;52.940;6.834;2024-02-26T04:51:22;68.50;;;42.75;;
57025;SDS011;43961;52.940;6.834;2024-02-26T04:53:47;61.42;;;39.95;;
57025;SDS011;43961;52.940;6.834;2024-02-26T04:56:13;63.38;;;38.97;;
57025;SDS011;43961;52.940;6.834;2024-02-26T04:58:38;55.75;;;36.58;;
57025;SDS011;43961;52.940;6.834;2024-02-26T05:01:04;58.53;;;35.58;;
57025;SDS011;43961;52.940;6.834;2024-02-26T05:03:30;55.28;;;36.05;;
57025;SDS011;43961;52.940;6.834;2024-02-26T05:05:56;47.65;;;31.92;;
57025;SDS011;43961;52.940;6.834;2024-02-26T05:08:23;48.70;;;31.42;;
57025;SDS011;43961;52.940;6.834;2024-02-26T05:10:50;44.67;;;31.38;;
57025;SDS011;43961;52.940;6.834;2024-02-26T05:13:15;54.30;;;31.58;;
57025;SDS011;43961;52.940;6.834;2024-02-26T05:15:43;49.67;;;33.65;;
57025;SDS011;43961;52.940;6.834;2024-02-26T05:18:10;52.63;;;31.02;;
57025;SDS011;43961;52.940;6.834;2024-02-26T05:20:35;54.22;;;33.85;;
57025;SDS011;43961;52.940;6.834;2024-02-26T05:23:02;56.05;;;32.92;;
57025;SDS011;43961;52.940;6.834;2024-02-26T05:25:28;51.90;;;33.72;;
57025;SDS011;43961;52.940;6.834;2024-02-26T05:27:54;51.03;;;32.15;;
57025;SDS011;43961;52.940;6.834;2024-02-26T05:30:20;59.03;;;34.40;;
57025;SDS011;43961;52.940;6.834;2024-02-26T05:32:45;15.02;;;7.85;;
57025;SDS011;43961;52.940;6.834;2024-02-26T05:35:11;47.35;;;31.75;;
57025;SDS011;43961;52.940;6.834;2024-02-26T05:37:37;46.72;;;29.27;;
57025;SDS011;43961;52.940;6.834;2024-02-26T05:40:02;50.85;;;31.48;;
57025;SDS011;43961;52.940;6.834;2024-02-26T05:42:29;46.33;;;30.00;;
57025;SDS011;43961;52.940;6.834;2024-02-26T05:44:55;45.22;;;28.52;;
57025;SDS011;43961;52.940;6.834;2024-02-26T05:47:20;49.90;;;29.38;;
57025;SDS011;43961;52.940;6.834;2024-02-26T05:49:46;50.78;;;28.38;;
57025;SDS011;43961;52.940;6.834;2024-02-26T05:52:12;42.25;;;27.63;;
57025;SDS011;43961;52.940;6.834;2024-02-26T05:54:37;38.83;;;25.67;;
57025;SDS011;43961;52.940;6.834;2024-02-26T05:57:03;39.22;;;25.95;;
57025;SDS011;43961;52.940;6.834;2024-02-26T05:59:28;50.65;;;25.75;;
57025;SDS011;43961;52.940;6.834;2024-02-26T06:01:54;42.67;;;25.42;;
57025;SDS011;43961;52.940;6.834;2024-02-26T06:04:20;42.72;;;26.17;;
57025;SDS011;43961;52.940;6.834;2024-02-26T06:06:45;39.72;;;24.92;;
57025;SDS011;43961;52.940;6.834;2024-02-26T06:09:11;34.22;;;23.80;;
57025;SDS011;43961;52.940;6.834;2024-02-26T06:11:37;42.47;;;25.55;;
57025;SDS011;43961;52.940;6.834;2024-02-26T06:14:03;44.03;;;26.52;;
57025;SDS011;43961;52.940;6.834;2024-02-26T06:16:29;40.53;;;25.30;;
57025;SDS011;43961;52.940;6.834;2024-02-26T06:18:55;37.10;;;23.88;;
57025;SDS011;43961;52.940;6.834;2024-02-26T06:21:22;36.20;;;24.45;;
57025;SDS011;43961;52.940;6.834;2024-02-26T06:23:48;37.35;;;23.30;;
57025;SDS011;43961;52.940;6.834;2024-02-26T06:26:15;39.70;;;25.05;;
57025;SDS011;43961;52.940;6.834;2024-02-26T06:28:42;41.97;;;24.73;;
57025;SDS011;43961;52.940;6.834;2024-02-26T06:31:07;34.58;;;23.30;;
57025;SDS011;43961;52.940;6.834;2024-02-26T06:33:33;35.15;;;22.55;;
57025;SDS011;43961;52.940;6.834;2024-02-26T06:35:59;37.88;;;24.15;;
57025;SDS011;43961;52.940;6.834;2024-02-26T06:38:24;33.72;;;21.52;;
57025;SDS011;43961;52.940;6.834;2024-02-26T06:40:50;38.83;;;23.23;;
57025;SDS011;43961;52.940;6.834;2024-02-26T06:43:16;37.55;;;22.58;;
57025;SDS011;43961;52.940;6.834;2024-02-26T06:45:42;41.20;;;24.27;;
57025;SDS011;43961;52.940;6.834;2024-02-26T06:48:07;37.28;;;23.67;;
57025;SDS011;43961;52.940;6.834;2024-02-26T06:50:33;32.03;;;22.85;;
57025;SDS011;43961;52.940;6.834;2024-02-26T06:52:59;31.05;;;21.20;;
57025;SDS011;43961;52.940;6.834;2024-02-26T06:55:24;31.23;;;21.73;;
57025;SDS011;43961;52.940;6.834;2024-02-26T06:57:50;35.95;;;21.95;;
57025;SDS011;43961;52.940;6.834;2024-02-26T07:00:16;34.45;;;20.30;;
57025;SDS011;43961;52.940;6.834;2024-02-26T07:02:45;29.73;;;21.27;;
57025;SDS011;43961;52.940;6.834;2024-02-26T07:05:10;33.78;;;20.00;;
57025;SDS011;43961;52.940;6.834;2024-02-26T07:07:37;31.48;;;21.17;;
57025;SDS011;43961;52.940;6.834;2024-02-26T07:10:03;28.77;;;19.13;;
57025;SDS011;43961;52.940;6.834;2024-02-26T07:12:30;30.85;;;19.25;;
57025;SDS011;43961;52.940;6.834;2024-02-26T07:14:56;30.77;;;20.77;;
57025;SDS011;43961;52.940;6.834;2024-02-26T07:17:23;28.35;;;19.10;;
57025;SDS011;43961;52.940;6.834;2024-02-26T07:19:48;31.90;;;19.98;;
57025;SDS011;43961;52.940;6.834;2024-02-26T07:22:15;31.80;;;20.50;;
57025;SDS011;43961;52.940;6.834;2024-02-26T07:24:40;30.60;;;19.95;;
57025;SDS011;43961;52.940;6.834;2024-02-26T07:27:06;33.40;;;20.52;;
57025;SDS011;43961;52.940;6.834;2024-02-26T07:29:32;26.60;;;18.95;;
57025;SDS011;43961;52.940;6.834;2024-02-26T07:31:58;27.42;;;20.35;;
57025;SDS011;43961;52.940;6.834;2024-02-26T07:34:24;30.27;;;20.55;;
57025;SDS011;43961;52.940;6.834;2024-02-26T07:36:54;28.33;;;19.48;;
57025;SDS011;43961;52.940;6.834;2024-02-26T07:39:22;29.50;;;19.58;;
57025;SDS011;43961;52.940;6.834;2024-02-26T07:41:48;26.05;;;19.17;;
57025;SDS011;43961;52.940;6.834;2024-02-26T07:46:42;25.52;;;17.83;;
57025;SDS011;43961;52.940;6.834;2024-02-26T07:49:08;23.30;;;17.95;;
57025;SDS011;43961;52.940;6.834;2024-02-26T07:51:33;27.10;;;18.92;;
57025;SDS011;43961;52.940;6.834;2024-02-26T07:54:00;25.42;;;18.23;;
57025;SDS011;43961;52.940;6.834;2024-02-26T07:56:26;29.58;;;19.05;;
57025;SDS011;43961;52.940;6.834;2024-02-26T07:58:51;28.50;;;18.88;;
57025;SDS011;43961;52.940;6.834;2024-02-26T08:01:17;25.40;;;18.45;;
57025;SDS011;43961;52.940;6.834;2024-02-26T08:03:42;25.08;;;17.55;;
57025;SDS011;43961;52.940;6.834;2024-02-26T08:06:08;26.27;;;19.02;;
57025;SDS011;43961;52.940;6.834;2024-02-26T08:08:35;23.90;;;17.70;;
57025;SDS011;43961;52.940;6.834;2024-02-26T08:11:01;24.83;;;19.42;;
57025;SDS011;43961;52.940;6.834;2024-02-26T08:13:28;31.75;;;18.13;;
57025;SDS011;43961;52.940;6.834;2024-02-26T08:15:55;24.20;;;19.20;;
57025;SDS011;43961;52.940;6.834;2024-02-26T08:18:20;24.38;;;18.08;;
57025;SDS011;43961;52.940;6.834;2024-02-26T08:20:46;26.63;;;18.88;;
57025;SDS011;43961;52.940;6.834;2024-02-26T08:23:13;25.00;;;18.70;;
57025;SDS011;43961;52.940;6.834;2024-02-26T08:25:39;26.30;;;19.63;;
57025;SDS011;43961;52.940;6.834;2024-02-26T08:28:05;32.38;;;20.50;;
57025;SDS011;43961;52.940;6.834;2024-02-26T08:30:31;26.90;;;18.67;;
57025;SDS011;43961;52.940;6.834;2024-02-26T08:32:56;27.05;;;18.52;;
57025;SDS011;43961;52.940;6.834;2024-02-26T08:35:22;27.05;;;19.15;;
57025;SDS011;43961;52.940;6.834;2024-02-26T08:37:47;24.83;;;17.92;;
57025;SDS011;43961;52.940;6.834;2024-02-26T08:40:13;27.42;;;19.23;;
57025;SDS011;43961;52.940;6.834;2024-02-26T08:42:39;32.22;;;19.48;;
57025;SDS011;43961;52.940;6.834;2024-02-26T08:45:05;25.17;;;19.70;;
57025;SDS011;43961;52.940;6.834;2024-02-26T08:47:32;28.88;;;19.10;;
57025;SDS011;43961;52.940;6.834;2024-02-26T08:49:57;25.77;;;18.98;;
57025;SDS011;43961;52.940;6.834;2024-02-26T08:52:23;31.30;;;19.40;;
57025;SDS011;43961;52.940;6.834;2024-02-26T08:54:49;32.17;;;19.42;;
57025;SDS011;43961;52.940;6.834;2024-02-26T08:57:15;28.48;;;20.52;;
57025;SDS011;43961;52.940;6.834;2024-02-26T08:59:41;27.30;;;20.38;;
57025;SDS011;43961;52.940;6.834;2024-02-26T09:02:07;28.88;;;20.25;;
57025;SDS011;43961;52.940;6.834;2024-02-26T09:04:34;28.05;;;19.90;;
57025;SDS011;43961;52.940;6.834;2024-02-26T09:07:00;25.52;;;19.20;;
57025;SDS011;43961;52.940;6.834;2024-02-26T09:09:27;27.42;;;20.52;;
57025;SDS011;43961;52.940;6.834;2024-02-26T09:11:52;27.55;;;18.30;;
57025;SDS011;43961;52.940;6.834;2024-02-26T09:14:20;26.33;;;18.50;;
57025;SDS011;43961;52.940;6.834;2024-02-26T09:16:46;29.65;;;19.63;;
57025;SDS011;43961;52.940;6.834;2024-02-26T09:19:13;29.38;;;18.98;;
57025;SDS011;43961;52.940;6.834;2024-02-26T09:21:45;22.00;;;17.60;;
57025;SDS011;43961;52.940;6.834;2024-02-26T09:24:11;23.88;;;17.85;;
57025;SDS011;43961;52.940;6.834;2024-02-26T09:26:37;27.30;;;18.48;;
57025;SDS011;43961;52.940;6.834;2024-02-26T09:29:03;27.05;;;19.23;;
57025;SDS011;43961;52.940;6.834;2024-02-26T09:31:29;27.52;;;18.98;;
57025;SDS011;43961;52.940;6.834;2024-02-26T09:33:56;28.92;;;18.88;;
57025;SDS011;43961;52.940;6.834;2024-02-26T09:36:22;24.77;;;17.45;;
57025;SDS011;43961;52.940;6.834;2024-02-26T09:38:48;30.45;;;20.38;;
57025;SDS011;43961;52.940;6.834;2024-02-26T09:41:14;26.25;;;19.13;;
57025;SDS011;43961;52.940;6.834;2024-02-26T09:43:44;25.48;;;18.13;;
57025;SDS011;43961;52.940;6.834;2024-02-26T09:46:11;28.02;;;17.63;;
57025;SDS011;43961;52.940;6.834;2024-02-26T09:48:37;25.08;;;17.63;;
57025;SDS011;43961;52.940;6.834;2024-02-26T09:51:03;27.70;;;18.77;;
57025;SDS011;43961;52.940;6.834;2024-02-26T09:53:30;28.55;;;18.80;;
57025;SDS011;43961;52.940;6.834;2024-02-26T09:55:57;27.08;;;19.65;;
57025;SDS011;43961;52.940;6.834;2024-02-26T09:58:23;27.08;;;19.42;;
57025;SDS011;43961;52.940;6.834;2024-02-26T10:00:53;27.58;;;19.80;;
57025;SDS011;43961;52.940;6.834;2024-02-26T10:03:25;28.73;;;19.40;;
57025;SDS011;43961;52.940;6.834;2024-02-26T10:05:53;31.85;;;20.58;;
57025;SDS011;43961;52.940;6.834;2024-02-26T10:08:20;32.10;;;21.10;;
57025;SDS011;43961;52.940;6.834;2024-02-26T10:10:47;28.98;;;21.05;;
57025;SDS011;43961;52.940;6.834;2024-02-26T10:13:14;29.75;;;20.98;;
57025;SDS011;43961;52.940;6.834;2024-02-26T10:15:40;34.35;;;23.30;;
57025;SDS011;43961;52.940;6.834;2024-02-26T10:18:06;29.88;;;20.83;;
57025;SDS011;43961;52.940;6.834;2024-02-26T10:20:32;33.03;;;21.27;;
57025;SDS011;43961;52.940;6.834;2024-02-26T10:22:58;33.30;;;21.05;;
57025;SDS011;43961;52.940;6.834;2024-02-26T10:25:27;30.73;;;20.33;;
57025;SDS011;43961;52.940;6.834;2024-02-26T10:27:52;31.88;;;21.17;;
57025;SDS011;43961;52.940;6.834;2024-02-26T10:30:19;29.52;;;20.73;;
57025;SDS011;43961;52.940;6.834;2024-02-26T10:32:46;37.03;;;22.40;;
57025;SDS011;43961;52.940;6.834;2024-02-26T10:35:13;32.15;;;20.58;;
57025;SDS011;43961;52.940;6.834;2024-02-26T10:37:42;31.60;;;22.48;;
57025;SDS011;43961;52.940;6.834;2024-02-26T10:40:11;33.75;;;22.30;;
57025;SDS011;43961;52.940;6.834;2024-02-26T10:42:38;34.58;;;22.13;;
57025;SDS011;43961;52.940;6.834;2024-02-26T10:45:05;31.10;;;21.80;;
57025;SDS011;43961;52.940;6.834;2024-02-26T10:47:31;29.75;;;21.13;;
57025;SDS011;43961;52.940;6.834;2024-02-26T10:49:58;32.92;;;20.95;;
57025;SDS011;43961;52.940;6.834;2024-02-26T10:52:26;32.03;;;22.35;;
57025;SDS011;43961;52.940;6.834;2024-02-26T10:54:54;30.15;;;21.05;;
57025;SDS011;43961;52.940;6.834;2024-02-26T10:57:23;29.70;;;21.77;;
57025;SDS011;43961;52.940;6.834;2024-02-26T10:59:51;32.00;;;21.83;;
57025;SDS011;43961;52.940;6.834;2024-02-26T11:02:18;32.90;;;23.05;;
57025;SDS011;43961;52.940;6.834;2024-02-26T11:04:45;32.13;;;21.77;;
57025;SDS011;43961;52.940;6.834;2024-02-26T11:07:12;30.05;;;21.58;;
57025;SDS011;43961;52.940;6.834;2024-02-26T11:09:39;31.23;;;21.77;;
57025;SDS011;43961;52.940;6.834;2024-02-26T11:12:10;35.90;;;22.20;;
57025;SDS011;43961;52.940;6.834;2024-02-26T11:14:38;29.45;;;19.88;;
57025;SDS011;43961;52.940;6.834;2024-02-26T11:17:09;26.95;;;19.48;;
57025;SDS011;43961;52.940;6.834;2024-02-26T11:19:37;31.33;;;19.33;;
57025;SDS011;43961;52.940;6.834;2024-02-26T11:22:04;27.90;;;19.42;;
57025;SDS011;43961;52.940;6.834;2024-02-26T11:24:29;29.30;;;19.80;;
57025;SDS011;43961;52.940;6.834;2024-02-26T11:26:57;29.33;;;18.67;;
57025;SDS011;43961;52.940;6.834;2024-02-26T11:29:37;26.17;;;18.73;;
57025;SDS011;43961;52.940;6.834;2024-02-26T11:32:06;26.63;;;18.13;;
57025;SDS011;43961;52.940;6.834;2024-02-26T11:34:32;28.52;;;19.58;;
57025;SDS011;43961;52.940;6.834;2024-02-26T11:36:59;25.77;;;17.40;;
57025;SDS011;43961;52.940;6.834;2024-02-26T11:39:35;26.47;;;17.27;;
57025;SDS011;43961;52.940;6.834;2024-02-26T11:42:05;26.05;;;19.58;;
57025;SDS011;43961;52.940;6.834;2024-02-26T11:44:34;25.05;;;18.42;;
57025;SDS011;43961;52.940;6.834;2024-02-26T11:47:13;25.80;;;17.67;;
57025;SDS011;43961;52.940;6.834;2024-02-26T11:49:42;26.42;;;18.90;;
57025;SDS011;43961;52.940;6.834;2024-02-26T11:52:09;26.77;;;19.42;;
57025;SDS011;43961;52.940;6.834;2024-02-26T11:57:30;25.70;;;18.17;;
57025;SDS011;43961;52.940;6.834;2024-02-26T12:02:38;25.08;;;17.30;;
57025;SDS011;43961;52.940;6.834;2024-02-26T12:05:13;25.65;;;17.63;;
57025;SDS011;43961;52.940;6.834;2024-02-26T12:07:42;23.77;;;17.65;;
57025;SDS011;43961;52.940;6.834;2024-02-26T12:13:07;25.33;;;18.17;;
57025;SDS011;43961;52.940;6.834;2024-02-26T12:15:36;27.33;;;19.30;;
57025;SDS011;43961;52.940;6.834;2024-02-26T12:18:03;25.85;;;18.05;;
57025;SDS011;43961;52.940;6.834;2024-02-26T12:20:30;24.33;;;17.85;;
57025;SDS011;43961;52.940;6.834;2024-02-26T12:22:56;29.02;;;19.65;;
57025;SDS011;43961;52.940;6.834;2024-02-26T12:25:23;27.98;;;18.90;;
57025;SDS011;43961;52.940;6.834;2024-02-26T12:27:53;28.48;;;18.73;;
57025;SDS011;43961;52.940;6.834;2024-02-26T12:30:20;30.08;;;19.67;;
57025;SDS011;43961;52.940;6.834;2024-02-26T12:32:50;28.65;;;18.42;;
57025;SDS011;43961;52.940;6.834;2024-02-26T12:35:16;29.13;;;19.98;;
57025;SDS011;43961;52.940;6.834;2024-02-26T12:37:43;32.70;;;20.10;;
57025;SDS011;43961;52.940;6.834;2024-02-26T12:40:10;29.17;;;19.63;;
57025;SDS011;43961;52.940;6.834;2024-02-26T12:42:36;23.80;;;18.20;;
57025;SDS011;43961;52.940;6.834;2024-02-26T12:45:10;31.27;;;20.85;;
57025;SDS011;43961;52.940;6.834;2024-02-26T12:47:37;35.20;;;20.80;;
57025;SDS011;43961;52.940;6.834;2024-02-26T12:50:03;28.85;;;19.17;;
57025;SDS011;43961;52.940;6.834;2024-02-26T12:52:30;30.73;;;20.33;;
57025;SDS011;43961;52.940;6.834;2024-02-26T12:54:57;25.48;;;18.08;;
57025;SDS011;43961;52.940;6.834;2024-02-26T12:57:23;28.30;;;20.08;;
57025;SDS011;43961;52.940;6.834;2024-02-26T12:59:49;29.15;;;20.98;;
57025;SDS011;43961;52.940;6.834;2024-02-26T13:02:14;30.27;;;20.88;;
57025;SDS011;43961;52.940;6.834;2024-02-26T13:04:40;30.75;;;21.25;;
57025;SDS011;43961;52.940;6.834;2024-02-26T13:07:06;32.55;;;22.20;;
57025;SDS011;43961;52.940;6.834;2024-02-26T13:09:32;31.08;;;22.00;;
57025;SDS011;43961;52.940;6.834;2024-02-26T13:12:00;33.80;;;20.38;;
57025;SDS011;43961;52.940;6.834;2024-02-26T13:14:28;33.58;;;21.92;;
57025;SDS011;43961;52.940;6.834;2024-02-26T13:17:00;31.73;;;21.85;;
57025;SDS011;43961;52.940;6.834;2024-02-26T13:19:26;35.33;;;22.70;;
57025;SDS011;43961;52.940;6.834;2024-02-26T13:21:53;34.17;;;23.50;;
57025;SDS011;43961;52.940;6.834;2024-02-26T13:24:19;36.38;;;24.15;;
57025;SDS011;43961;52.940;6.834;2024-02-26T13:26:45;36.75;;;24.25;;
57025;SDS011;43961;52.940;6.834;2024-02-26T13:29:18;38.55;;;23.48;;
57025;SDS011;43961;52.940;6.834;2024-02-26T13:31:43;36.60;;;24.45;;
57025;SDS011;43961;52.940;6.834;2024-02-26T13:34:09;35.90;;;23.63;;
57025;SDS011;43961;52.940;6.834;2024-02-26T13:36:35;36.67;;;24.42;;
57025;SDS011;43961;52.940;6.834;2024-02-26T13:39:01;35.75;;;22.95;;
57025;SDS011;43961;52.940;6.834;2024-02-26T13:41:29;33.40;;;21.73;;
57025;SDS011;43961;52.940;6.834;2024-02-26T13:43:55;33.80;;;23.10;;
57025;SDS011;43961;52.940;6.834;2024-02-26T13:46:22;36.72;;;23.35;;
57025;SDS011;43961;52.940;6.834;2024-02-26T13:48:48;34.20;;;23.38;;
57025;SDS011;43961;52.940;6.834;2024-02-26T13:51:14;35.22;;;23.27;;
57025;SDS011;43961;52.940;6.834;2024-02-26T13:53:40;32.28;;;22.63;;
57025;SDS011;43961;52.940;6.834;2024-02-26T13:56:05;37.83;;;23.83;;
57025;SDS011;43961;52.940;6.834;2024-02-26T13:58:32;34.22;;;22.88;;
57025;SDS011;43961;52.940;6.834;2024-02-26T14:00:57;37.63;;;23.40;;
57025;SDS011;43961;52.940;6.834;2024-02-26T14:03:24;42.97;;;25.98;;
57025;SDS011;43961;52.940;6.834;2024-02-26T14:05:50;41.58;;;26.23;;
57025;SDS011;43961;52.940;6.834;2024-02-26T14:08:15;40.63;;;24.45;;
57025;SDS011;43961;52.940;6.834;2024-02-26T14:10:41;42.75;;;27.38;;
57025;SDS011;43961;52.940;6.834;2024-02-26T14:13:07;47.92;;;27.98;;
57025;SDS011;43961;52.940;6.834;2024-02-26T14:15:33;50.42;;;27.98;;
57025;SDS011;43961;52.940;6.834;2024-02-26T14:18:00;41.72;;;27.70;;
57025;SDS011;43961;52.940;6.834;2024-02-26T14:20:28;42.83;;;25.77;;
57025;SDS011;43961;52.940;6.834;2024-02-26T14:22:55;45.25;;;27.63;;
57025;SDS011;43961;52.940;6.834;2024-02-26T14:25:21;43.30;;;25.90;;